Time;durP1;ratioP1;P1;durP2;ratioP2;P2;SDS_P1;SDS_P2;PMS_P1;PMS_P2;Temp;Humidity;BMP_temperature;BMP_pressure;BME280_temperature;BME280_humidity;BME280_pressure;Samples;Min_cycle;Max_cycle;Signal;HPM_P1;HPM_P2
2023/12/20 00:01:08;;;;;;;35.45;21.85;;;;;;;11.00;69.15;100274.95;1746591;82;21316;-83
2023/12/20 00:03:54;;;;;;;34.38;20.88;;;;;;;10.70;69.88;100268.98;1746978;82;22029;-83
2023/12/20 00:06:54;;;;;;;35.45;22.87;;;;;;;10.79;69.33;100273.91;1746496;81;21918;-83
2023/12/20 00:10:01;;;;;;;31.48;21.30;;;;;;;10.79;69.36;100271.16;1746635;81;21290;-83
2023/12/20 00:13:08;;;;;;;35.45;21.60;;;;;;;10.76;69.32;100281.94;1773021;81;21286;-84
2023/12/20 00:16:15;;;;;;;32.55;20.70;;;;;;;10.87;68.62;100262.89;1773355;81;21286;-84
2023/12/20 00:19:21;;;;;;;34.55;19.98;;;;;;;10.70;69.06;100267.09;1773610;81;21314;-84
2023/12/20 00:22:28;;;;;;;37.60;21.35;;;;;;;10.88;68.52;100259.15;1774979;81;21297;-83
2023/12/20 00:25:35;;;;;;;30.62;19.67;;;;;;;10.93;68.25;100249.36;1741388;82;21290;-83
2023/12/20 00:28:40;;;;;;;33.20;21.55;;;;;;;10.83;68.31;100243.78;1740556;82;21355;-83
2023/12/20 00:31:46;;;;;;;32.75;20.27;;;;;;;11.04;68.02;100241.77;1742307;82;21325;-83
2023/12/20 00:34:52;;;;;;;36.33;21.23;;;;;;;10.90;68.04;100229.19;1742061;82;21858;-83
2023/12/20 00:37:58;;;;;;;31.85;19.70;;;;;;;10.92;67.80;100218.93;1741433;82;21343;-83
2023/12/20 00:41:04;;;;;;;31.80;20.85;;;;;;;10.95;67.88;100210.34;1744844;81;21335;-84
2023/12/20 00:44:09;;;;;;;31.30;21.05;;;;;;;10.74;68.50;100215.62;1774809;81;21299;-83
2023/12/20 00:47:09;;;;;;;35.10;21.75;;;;;;;10.45;69.61;100219.02;1775058;81;21354;-84
2023/12/20 00:50:17;;;;;;;38.05;21.97;;;;;;;10.07;70.98;100220.15;1780736;80;22515;-83
2023/12/20 00:53:24;;;;;;;38.80;22.27;;;;;;;10.12;70.83;100216.89;1779032;80;21726;-83
2023/12/20 00:56:30;;;;;;;33.08;21.68;;;;;;;10.09;71.00;100214.50;1771545;80;21844;-83
2023/12/20 00:59:36;;;;;;;31.80;21.05;;;;;;;10.02;71.09;100217.58;1746851;82;21883;-84
2023/12/20 01:02:42;;;;;;;37.25;21.30;;;;;;;9.98;71.27;100219.83;1746871;82;21305;-83
2023/12/20 01:05:47;;;;;;;38.33;21.68;;;;;;;10.10;70.96;100211.58;1746818;82;21289;-84
2023/12/20 01:08:53;;;;;;;35.90;20.30;;;;;;;9.97;71.23;100220.34;1746032;82;21345;-83
2023/12/20 01:12:00;;;;;;;35.65;20.27;;;;;;;10.01;71.60;100225.44;1746935;81;21277;-83
2023/12/20 01:15:06;;;;;;;32.58;19.95;;;;;;;10.14;70.83;100220.28;1745558;82;21654;-83
2023/12/20 01:18:12;;;;;;;33.65;20.40;;;;;;;10.30;70.47;100214.78;1746429;82;21911;-83
2023/12/20 01:21:13;;;;;;;35.65;19.85;;;;;;;10.24;70.81;100221.81;1745398;82;21321;-83
2023/12/20 01:24:07;;;;;;;32.38;20.25;;;;;;;10.10;70.98;100214.83;1746766;82;21324;-84
2023/12/20 01:27:12;;;;;;;36.28;23.00;;;;;;;10.05;71.32;100211.77;1745752;81;21971;-84
2023/12/20 01:30:19;;;;;;;29.05;19.10;;;;;;;10.11;71.40;100211.91;1746756;82;21321;-84
2023/12/20 01:33:25;;;;;;;30.32;20.45;;;;;;;10.39;70.32;100208.25;1746689;82;21298;-83
2023/12/20 01:36:23;;;;;;;35.40;21.45;;;;;;;10.47;70.19;100206.86;1746660;82;21306;-83
2023/12/20 01:39:16;;;;;;;32.30;21.23;;;;;;;10.38;70.35;100205.19;1746135;82;21325;-83
2023/12/20 01:42:04;;;;;;;32.17;20.40;;;;;;;10.28;70.65;100214.12;1763529;80;21890;-84
2023/12/20 01:44:58;;;;;;;33.45;20.77;;;;;;;10.59;69.92;100204.59;1777393;80;21957;-83
2023/12/20 01:47:44;;;;;;;31.62;19.37;;;;;;;10.51;69.69;100203.25;1777557;80;21291;-83
2023/12/20 01:50:44;;;;;;;36.10;21.85;;;;;;;10.37;70.44;100217.16;1769409;80;21870;-83
2023/12/20 01:53:50;;;;;;;36.13;20.12;;;;;;;10.50;70.02;100202.92;1770200;81;21835;-84
2023/12/20 01:56:56;;;;;;;29.95;20.27;;;;;;;10.70;69.61;100207.43;1770162;81;21252;-83
2023/12/20 02:00:03;;;;;;;28.27;18.07;;;;;;;10.69;69.27;100201.62;1762071;81;21295;-83
2023/12/20 02:03:12;;;;;;;30.80;20.02;;;;;;;10.67;69.35;100207.78;1770413;81;21276;-83
2023/12/20 02:06:17;;;;;;;33.25;21.37;;;;;;;10.65;69.27;100207.12;1769796;81;21300;-83
2023/12/20 02:09:24;;;;;;;32.55;20.92;;;;;;;10.48;69.73;100193.51;1767955;81;21440;-83
2023/12/20 02:12:22;;;;;;;31.73;19.92;;;;;;;10.62;69.46;100195.16;1769323;81;21307;-83
2023/12/20 02:15:17;;;;;;;31.33;20.45;;;;;;;10.45;69.65;100195.25;1769389;81;21409;-83
2023/12/20 02:18:02;;;;;;;35.43;22.20;;;;;;;10.84;68.62;100192.98;1769254;81;21288;-84
2023/12/20 02:20:56;;;;;;;31.77;20.45;;;;;;;10.66;68.89;100189.15;1768185;81;21335;-83
2023/12/20 02:23:42;;;;;;;31.10;19.95;;;;;;;10.65;69.07;100190.19;1769478;81;21300;-84
2023/12/20 02:26:47;;;;;;;35.52;21.35;;;;;;;10.79;68.64;100173.52;1768474;81;21342;-84
2023/12/20 02:29:54;;;;;;;37.15;22.52;;;;;;;11.03;67.91;100174.38;1768559;81;21355;-84
2023/12/20 02:33:08;;;;;;;36.20;21.75;;;;;;;11.07;67.63;100164.78;1855692;76;22209;-83
2023/12/20 02:36:15;;;;;;;39.00;21.37;;;;;;;10.78;68.77;100158.66;1814177;79;21275;-84
2023/12/20 02:39:23;;;;;;;34.88;21.05;;;;;;;10.85;68.91;100155.52;1815560;79;21286;-83
2023/12/20 02:42:29;;;;;;;30.72;20.62;;;;;;;11.20;67.50;100153.55;1793126;79;21297;-84
2023/12/20 02:45:35;;;;;;;32.10;20.55;;;;;;;11.35;67.00;100159.05;1783596;80;21918;-83
2023/12/20 02:48:41;;;;;;;30.97;19.95;;;;;;;11.00;67.96;100158.64;1783462;80;21300;-84
2023/12/20 02:51:47;;;;;;;33.20;21.42;;;;;;;10.93;68.30;100159.05;1783278;80;21329;-84
2023/12/20 02:54:53;;;;;;;30.43;20.15;;;;;;;10.70;68.88;100156.30;1782295;80;21328;-84
2023/12/20 02:57:59;;;;;;;31.95;20.27;;;;;;;10.92;68.52;100152.41;1783556;79;21584;-83
2023/12/20 03:01:06;;;;;;;35.43;20.43;;;;;;;10.90;68.59;100150.34;1782254;80;21328;-83
2023/12/20 03:04:13;;;;;;;32.80;20.25;;;;;;;11.06;67.94;100142.55;1783576;80;21328;-83
2023/12/20 03:07:20;;;;;;;31.35;19.87;;;;;;;11.08;68.04;100141.84;1783678;80;21285;-84
2023/12/20 03:10:27;;;;;;;34.08;19.70;;;;;;;10.58;69.33;100135.00;1782060;80;21301;-83
2023/12/20 03:13:34;;;;;;;29.00;19.17;;;;;;;10.70;69.53;100130.84;1783705;80;21321;-83
2023/12/20 03:16:40;;;;;;;30.97;19.12;;;;;;;10.97;68.62;100140.39;1783513;80;21329;-84
2023/12/20 03:19:47;;;;;;;32.33;19.55;;;;;;;10.58;69.55;100134.48;1783619;80;21827;-84
2023/12/20 03:22:54;;;;;;;36.58;20.23;;;;;;;10.76;69.63;100134.20;1782964;80;21607;-84
2023/12/20 03:26:00;;;;;;;34.13;20.48;;;;;;;10.52;69.98;100135.22;1774371;80;21883;-83
2023/12/20 03:29:06;;;;;;;31.73;20.45;;;;;;;10.46;70.32;100138.68;1740932;82;21652;-83
2023/12/20 03:32:12;;;;;;;26.62;17.85;;;;;;;10.58;70.06;100143.20;1743593;82;21293;-83
2023/12/20 03:35:18;;;;;;;29.50;17.73;;;;;;;10.67;69.84;100142.97;1752902;82;21333;-83
2023/12/20 03:38:24;;;;;;;24.40;17.73;;;;;;;10.39;70.46;100142.63;1752782;82;21308;-84
2023/12/20 03:41:31;;;;;;;28.87;17.57;;;;;;;10.53;70.35;100136.91;1752674;82;21342;-83
2023/12/20 03:44:37;;;;;;;28.85;17.73;;;;;;;10.61;70.15;100130.03;1750694;82;21877;-84
2023/12/20 03:47:43;;;;;;;27.05;16.97;;;;;;;10.47;70.27;100124.81;1750999;82;21377;-84
2023/12/20 03:50:50;;;;;;;26.62;18.02;;;;;;;10.38;70.71;100140.08;1752154;82;21956;-84
2023/12/20 03:53:55;;;;;;;24.00;16.02;;;;;;;10.33;70.72;100137.89;1750971;82;21947;-83
2023/12/20 03:57:00;;;;;;;25.90;18.32;;;;;;;10.84;69.40;100146.46;1765590;80;21335;-83
2023/12/20 04:00:10;;;;;;;22.80;16.17;;;;;;;10.68;69.33;100142.45;1783324;80;21288;-83
2023/12/20 04:03:13;;;;;;;28.05;17.82;;;;;;;10.96;68.58;100142.28;1782480;80;21354;-83
2023/12/20 04:06:26;;;;;;;30.52;16.67;;;;;;;11.21;67.72;100151.13;1783231;80;21303;-83
2023/12/20 04:09:25;;;;;;;26.30;17.25;;;;;;;11.12;67.78;100137.18;1783254;80;21296;-83
2023/12/20 04:12:30;;;;;;;25.57;16.42;;;;;;;11.13;67.71;100134.77;1783055;80;21882;-84
2023/12/20 04:15:38;;;;;;;25.40;16.55;;;;;;;11.11;67.86;100136.00;1783491;80;21340;-84
2023/12/20 04:18:45;;;;;;;26.68;16.85;;;;;;;10.71;68.66;100140.73;1782806;80;21906;-83
2023/12/20 04:21:52;;;;;;;27.30;17.42;;;;;;;10.63;69.44;100140.30;1783498;80;21295;-84
2023/12/20 04:24:59;;;;;;;26.45;18.02;;;;;;;10.73;69.25;100136.80;1781946;80;21291;-83
2023/12/20 04:28:05;;;;;;;26.97;17.75;;;;;;;10.91;68.84;100137.84;1781813;80;21271;-84
2023/12/20 04:33:44;;;;;;;24.43;17.42;;;;;;;11.01;68.22;100133.52;1855451;76;28044;-83
2023/12/20 04:36:50;;;;;;;27.95;17.50;;;;;;;10.75;69.47;100131.98;1749058;82;21322;-83
2023/12/20 04:39:56;;;;;;;26.95;17.25;;;;;;;10.89;69.22;100126.24;1765555;81;21294;-83
2023/12/20 04:43:02;;;;;;;29.63;18.62;;;;;;;10.60;70.14;100122.86;1703135;82;21293;-83
2023/12/20 04:46:08;;;;;;;28.10;18.52;;;;;;;10.79;69.87;100132.48;1728211;83;21374;-83
2023/12/20 04:49:14;;;;;;;27.40;17.52;;;;;;;10.86;69.73;100133.95;1726875;83;21342;-84
2023/12/20 04:52:22;;;;;;;26.35;17.60;;;;;;;10.84;69.99;100133.30;1727651;83;21342;-83
2023/12/20 04:55:27;;;;;;;29.32;19.12;;;;;;;11.09;69.60;100127.95;1727785;83;21303;-83
2023/12/20 04:58:33;;;;;;;31.82;18.98;;;;;;;11.17;69.10;100132.00;1743031;82;21300;-83
2023/12/20 05:01:38;;;;;;;30.02;18.00;;;;;;;11.06;69.40;100124.76;1741655;82;21331;-83
2023/12/20 05:04:44;;;;;;;25.55;16.23;;;;;;;10.92;69.96;100119.56;1741658;82;21306;-84
2023/12/20 05:07:52;;;;;;;26.27;17.15;;;;;;;11.00;69.89;100120.84;1743313;82;21315;-84
2023/12/20 05:11:01;;;;;;;32.33;19.23;;;;;;;10.95;70.06;100106.86;1744019;81;21343;-84
2023/12/20 05:14:08;;;;;;;27.52;18.17;;;;;;;11.02;69.93;100105.11;1764108;81;21299;-84
2023/12/20 05:17:14;;;;;;;26.55;17.82;;;;;;;11.25;69.19;100111.41;1764052;81;21331;-83
2023/12/20 05:20:21;;;;;;;28.12;17.77;;;;;;;11.35;68.89;100100.19;1764352;81;21315;-83
2023/12/20 05:23:27;;;;;;;27.05;17.45;;;;;;;11.33;68.81;100104.13;1762671;81;21295;-83
2023/12/20 05:26:33;;;;;;;26.65;16.77;;;;;;;11.33;69.12;100094.55;1747835;81;21466;-84
2023/12/20 05:29:39;;;;;;;30.05;18.65;;;;;;;12.07;67.19;100111.89;1733717;82;21307;-84
2023/12/20 05:32:46;;;;;;;29.32;18.92;;;;;;;12.31;66.00;100098.90;1735537;82;21877;-84
2023/12/20 05:35:53;;;;;;;26.90;16.85;;;;;;;11.54;68.63;100115.22;1746938;82;21331;-84
2023/12/20 05:38:59;;;;;;;27.35;18.30;;;;;;;11.14;70.06;100115.09;1745787;82;21307;-84
2023/12/20 05:42:04;;;;;;;31.33;18.90;;;;;;;11.26;69.83;100116.36;1746935;82;21296;-83
2023/12/20 05:45:10;;;;;;;32.93;19.62;;;;;;;11.63;68.77;100109.14;1744538;82;21355;-83
2023/12/20 05:48:15;;;;;;;31.68;19.50;;;;;;;11.89;67.87;100119.66;1744548;82;22622;-84
2023/12/20 05:51:21;;;;;;;31.48;18.50;;;;;;;12.05;67.29;100118.63;1745995;82;21304;-83
2023/12/20 05:54:27;;;;;;;29.67;18.07;;;;;;;11.89;67.82;100123.76;1743741;82;21342;-83
2023/12/20 05:57:33;;;;;;;27.62;17.75;;;;;;;11.57;68.83;100127.67;1725362;82;21291;-83
2023/12/20 06:00:39;;;;;;;24.43;17.45;;;;;;;11.66;68.79;100129.29;1717045;83;21283;-83
2023/12/20 06:03:51;;;;;;;26.75;16.10;;;;;;;11.95;67.83;100133.95;1716733;83;21327;-84
2023/12/20 06:06:57;;;;;;;23.73;15.65;;;;;;;11.83;68.51;100135.48;1716983;83;21275;-84
2023/12/20 06:10:03;;;;;;;24.85;16.70;;;;;;;11.60;69.03;100134.16;1717269;83;21268;-85
2023/12/20 06:13:09;;;;;;;32.53;17.45;;;;;;;11.38;69.88;100146.34;1717198;82;21320;-84
2023/12/20 06:16:15;;;;;;;25.05;16.62;;;;;;;11.40;70.03;100153.02;1717222;83;21281;-83
2023/12/20 06:19:22;;;;;;;30.48;17.62;;;;;;;11.32;70.38;100159.41;1717050;83;21344;-84
2023/12/20 06:22:28;;;;;;;29.10;16.60;;;;;;;11.39;70.29;100165.02;1716508;83;21863;-84
2023/12/20 06:25:34;;;;;;;23.50;17.32;;;;;;;11.40;70.51;100168.94;1736583;82;21320;-84
2023/12/20 06:28:40;;;;;;;24.47;15.58;;;;;;;11.75;69.84;100167.90;1723699;82;21320;-84
2023/12/20 06:31:45;;;;;;;23.85;14.10;;;;;;;11.49;70.24;100166.45;1719661;82;21310;-84
2023/12/20 06:34:52;;;;;;;17.40;13.15;;;;;;;11.55;70.76;100169.48;1730675;82;21341;-84
2023/12/20 06:37:58;;;;;;;29.20;16.62;;;;;;;11.69;70.15;100170.88;1720761;82;21288;-84
2023/12/20 06:41:03;;;;;;;23.40;15.72;;;;;;;11.49;70.41;100170.56;1716384;82;21283;-84
2023/12/20 06:44:08;;;;;;;25.65;16.35;;;;;;;12.05;68.78;100163.85;1714743;82;21299;-84
2023/12/20 06:47:14;;;;;;;28.23;17.67;;;;;;;11.57;70.05;100170.98;1709327;82;21319;-84
2023/12/20 06:50:21;;;;;;;24.50;16.55;;;;;;;11.60;70.02;100168.41;1714494;82;21878;-84
2023/12/20 06:53:28;;;;;;;24.52;16.25;;;;;;;11.54;69.80;100163.16;1712156;82;22819;-83
2023/12/20 06:56:33;;;;;;;24.20;16.95;;;;;;;11.42;70.35;100168.22;1716103;82;21778;-84
2023/12/20 06:59:39;;;;;;;29.35;16.48;;;;;;;11.61;69.58;100169.58;1710587;82;21307;-84
2023/12/20 07:02:47;;;;;;;23.90;16.10;;;;;;;11.63;69.69;100158.45;1707645;82;21314;-84
2023/12/20 07:05:53;;;;;;;23.10;16.20;;;;;;;11.54;69.88;100168.64;1712707;82;21346;-84
2023/12/20 07:08:54;;;;;;;25.05;15.68;;;;;;;11.79;69.12;100158.27;1711708;82;22276;-85
2023/12/20 07:12:01;;;;;;;24.98;16.12;;;;;;;11.66;69.45;100155.32;1714939;82;22388;-84
2023/12/20 07:15:07;;;;;;;21.68;13.88;;;;;;;11.64;69.73;100153.30;1723709;82;21232;-84
2023/12/20 07:18:13;;;;;;;24.82;15.45;;;;;;;11.67;69.43;100146.09;1720287;82;21299;-84
2023/12/20 07:21:23;;;;;;;20.12;14.18;;;;;;;11.44;69.72;100148.36;1712334;82;21924;-83
2023/12/20 07:24:29;;;;;;;27.62;15.15;;;;;;;11.30;70.71;100146.96;1722132;82;22234;-83
2023/12/20 07:27:36;;;;;;;21.68;14.53;;;;;;;11.35;70.56;100154.95;1720679;82;21724;-84
2023/12/20 07:30:43;;;;;;;22.60;14.70;;;;;;;11.04;71.32;100165.98;1718284;82;21366;-84
2023/12/20 07:33:51;;;;;;;25.65;16.40;;;;;;;11.14;71.38;100169.31;1716151;82;21342;-84
2023/12/20 07:36:58;;;;;;;26.23;15.75;;;;;;;11.34;70.59;100163.33;1701777;82;21352;-84
2023/12/20 07:40:03;;;;;;;26.95;16.50;;;;;;;11.36;70.52;100170.86;1709546;83;21346;-84
2023/12/20 07:43:10;;;;;;;23.18;15.48;;;;;;;11.75;69.39;100158.30;1706144;83;21335;-83
2023/12/20 07:46:32;;;;;;;18.37;14.25;;;;;;;11.49;70.13;100150.55;1751094;81;21169;-84
2023/12/20 07:49:47;;;;;;;21.55;14.03;;;;;;;11.46;70.43;100153.64;1743308;81;21295;-83
2023/12/20 07:52:56;;;;;;;23.03;15.10;;;;;;;11.57;70.24;100145.48;1752789;81;21270;-84
2023/12/20 07:56:03;;;;;;;25.12;15.88;;;;;;;11.71;69.77;100148.23;1749569;81;22383;-84
2023/12/20 07:59:08;;;;;;;30.25;15.98;;;;;;;11.27;70.95;100135.84;1755639;81;21352;-83
2023/12/20 08:02:16;;;;;;;22.95;15.78;;;;;;;11.68;69.98;100132.72;1758262;81;21849;-83
2023/12/20 08:05:22;;;;;;;27.32;16.37;;;;;;;11.81;69.54;100131.55;1756318;81;21339;-83
2023/12/20 08:08:28;;;;;;;25.95;16.90;;;;;;;11.75;70.02;100132.27;1757260;81;21294;-83
2023/12/20 08:11:36;;;;;;;27.87;16.95;;;;;;;12.03;69.03;100126.48;1753436;81;21310;-84
2023/12/20 08:14:41;;;;;;;25.05;16.05;;;;;;;11.92;69.46;100125.61;1760380;81;21319;-84
2023/12/20 08:17:47;;;;;;;26.42;14.55;;;;;;;11.52;70.57;100118.13;1753013;81;21436;-83
2023/12/20 08:20:53;;;;;;;23.77;15.20;;;;;;;11.84;70.09;100116.11;1749797;81;21297;-84
2023/12/20 08:24:00;;;;;;;25.27;15.38;;;;;;;12.09;69.24;100116.68;1750923;81;21276;-84
2023/12/20 08:27:06;;;;;;;23.62;14.87;;;;;;;12.14;69.08;100110.59;1747645;79;21299;-84
2023/12/20 08:30:13;;;;;;;25.17;15.40;;;;;;;12.60;67.62;100113.89;1758364;81;21308;-84
2023/12/20 08:33:20;;;;;;;19.17;13.58;;;;;;;12.59;67.41;100095.73;1747778;81;21311;-84
2023/12/20 08:36:25;;;;;;;22.52;13.48;;;;;;;12.64;67.34;100097.90;1753657;80;21291;-84
2023/12/20 08:39:33;;;;;;;22.30;14.28;;;;;;;12.61;67.78;100100.53;1765308;80;21302;-84
2023/12/20 08:42:39;;;;;;;24.77;14.70;;;;;;;12.15;68.74;100091.75;1770365;80;21338;-84
2023/12/20 08:45:46;;;;;;;25.82;16.12;;;;;;;12.39;68.20;100086.45;1758503;80;21322;-84
2023/12/20 08:48:52;;;;;;;25.68;16.62;;;;;;;11.98;69.35;100094.69;1772696;80;21295;-84
2023/12/20 08:51:58;;;;;;;26.00;15.90;;;;;;;12.05;69.35;100089.31;1760390;80;21271;-84
2023/12/20 08:55:05;;;;;;;25.08;14.78;;;;;;;12.16;68.85;100081.95;1752484;80;21271;-84
2023/12/20 08:58:11;;;;;;;20.12;14.15;;;;;;;12.14;68.71;100088.66;1766167;80;21278;-84
2023/12/20 09:01:16;;;;;;;22.48;14.80;;;;;;;12.38;67.93;100078.74;1749071;80;21255;-83
2023/12/20 09:04:23;;;;;;;24.92;14.75;;;;;;;12.20;68.54;100078.31;1766249;80;21275;-83
2023/12/20 09:07:33;;;;;;;23.87;13.08;;;;;;;12.43;67.92;100072.68;1752756;80;21298;-83
2023/12/20 09:10:38;;;;;;;22.53;14.83;;;;;;;12.39;67.97;100061.77;1763350;80;22437;-83
2023/12/20 09:13:45;;;;;;;19.25;14.10;;;;;;;12.83;66.78;100056.08;1754241;80;21641;-83
2023/12/20 09:16:51;;;;;;;25.88;14.85;;;;;;;12.59;67.27;100061.97;1758797;80;21307;-84
2023/12/20 09:19:59;;;;;;;19.82;13.93;;;;;;;12.40;68.21;100051.95;1771768;80;21822;-83
2023/12/20 09:23:07;;;;;;;17.85;12.95;;;;;;;12.69;67.34;100042.75;1762503;80;21323;-83
2023/12/20 09:26:12;;;;;;;23.80;13.35;;;;;;;12.73;67.29;100033.61;1761658;80;21350;-83
2023/12/20 09:29:18;;;;;;;20.77;12.78;;;;;;;12.94;66.64;100015.76;1756308;80;22702;-83
2023/12/20 09:32:23;;;;;;;17.45;12.05;;;;;;;12.98;66.46;100015.66;1767608;80;21295;-83
2023/12/20 09:38:07;;;;;;;19.25;12.20;;;;;;;12.86;67.13;100014.52;1843358;76;28885;-82
2023/12/20 09:41:16;;;;;;;17.20;11.90;;;;;;;13.03;66.72;100010.94;1824201;77;21286;-82
2023/12/20 09:44:24;;;;;;;22.85;12.50;;;;;;;12.89;66.65;100003.16;1829106;77;21259;-82
2023/12/20 09:47:29;;;;;;;18.15;10.78;;;;;;;12.88;66.98;99993.20;1775575;79;21254;-82
2023/12/20 09:50:35;;;;;;;17.17;11.70;;;;;;;12.79;67.35;99993.02;1762077;80;21252;-82
2023/12/20 09:53:41;;;;;;;13.18;9.55;;;;;;;12.94;67.27;99983.34;1760728;80;21299;-82
2023/12/20 09:56:49;;;;;;;16.75;10.48;;;;;;;13.19;66.75;99983.72;1759883;80;21867;-83
2023/12/20 09:59:58;;;;;;;17.40;10.00;;;;;;;13.44;65.83;99981.36;1760720;80;21283;-83
2023/12/20 10:03:07;;;;;;;15.13;9.25;;;;;;;13.28;65.92;99971.56;1762589;80;21298;-82
2023/12/20 10:06:16;;;;;;;16.77;10.55;;;;;;;13.51;65.14;99972.11;1759819;80;21311;-83
2023/12/20 10:09:22;;;;;;;12.78;8.95;;;;;;;13.47;64.76;99965.33;1760218;80;21311;-82
2023/12/20 10:12:28;;;;;;;12.23;8.83;;;;;;;13.67;64.53;99954.95;1759841;80;21303;-82
2023/12/20 10:15:35;;;;;;;13.62;9.18;;;;;;;13.52;64.89;99966.94;1757231;80;21723;-83
2023/12/20 10:18:43;;;;;;;15.75;10.20;;;;;;;13.58;64.65;99970.76;1763638;79;21287;-82
2023/12/20 10:21:50;;;;;;;10.75;9.15;;;;;;;13.55;64.41;99965.16;1752971;80;21331;-82
2023/12/20 10:25:05;;;;;;;16.50;9.15;;;;;;;13.55;64.57;99959.67;1754284;80;21757;-83
2023/12/20 10:28:22;;;;;;;12.80;8.58;;;;;;;13.77;64.09;99951.28;1743687;81;21314;-83
2023/12/20 10:31:42;;;;;;;12.85;8.80;;;;;;;13.14;65.86;99952.75;1739392;81;21857;-83
2023/12/20 10:34:50;;;;;;;12.30;8.88;;;;;;;13.27;65.53;99949.27;1736646;81;21286;-82
2023/12/20 10:38:03;;;;;;;11.53;8.20;;;;;;;13.28;65.42;99949.59;1731502;81;21267;-82
2023/12/20 10:41:12;;;;;;;10.95;8.70;;;;;;;13.55;64.47;99951.42;1723667;81;22000;-83
2023/12/20 10:44:18;;;;;;;13.60;8.20;;;;;;;13.45;65.21;99954.20;1719414;81;21314;-83
2023/12/20 10:48:06;;;;;;;13.58;9.28;;;;;;;14.45;62.80;99946.59;1718063;82;21299;-84
2023/12/20 10:51:02;;;;;;;11.70;8.10;;;;;;;14.30;62.21;99946.79;1719043;81;21354;-84
2023/12/20 10:54:09;;;;;;;12.33;8.15;;;;;;;14.48;62.05;99948.09;1725785;81;21288;-83
2023/12/20 10:57:14;;;;;;;12.63;8.93;;;;;;;14.89;60.96;99947.88;1721163;83;21351;-83
2023/12/20 11:00:35;;;;;;;14.87;7.83;;;;;;;14.76;61.20;99945.13;1718181;82;21266;-83
2023/12/20 11:03:43;;;;;;;12.15;7.67;;;;;;;15.06;60.44;99940.87;1725128;81;21828;-83
2023/12/20 11:06:58;;;;;;;11.65;7.60;;;;;;;14.93;61.13;99927.66;1716668;82;21283;-84
2023/12/20 11:10:23;;;;;;;11.20;7.30;;;;;;;15.34;60.12;99927.36;1713433;82;22300;-83
2023/12/20 11:13:41;;;;;;;10.43;7.12;;;;;;;15.52;59.15;99921.97;1721649;81;21253;-84
2023/12/20 11:16:51;;;;;;;10.00;6.87;;;;;;;15.39;59.58;99913.78;1723601;82;21256;-84
2023/12/20 11:20:13;;;;;;;12.23;6.95;;;;;;;15.49;59.85;99911.94;1697283;82;21180;-83
2023/12/20 11:23:19;;;;;;;12.43;7.17;;;;;;;15.41;60.08;99906.12;1720507;82;21276;-83
2023/12/20 11:26:34;;;;;;;7.95;6.17;;;;;;;15.48;59.90;99912.47;1692187;83;21148;-83
2023/12/20 11:29:44;;;;;;;11.57;6.45;;;;;;;15.55;59.79;99905.54;1693644;83;21264;-83
2023/12/20 11:32:54;;;;;;;11.20;7.28;;;;;;;15.37;60.87;99891.08;1725659;82;21267;-83
2023/12/20 11:36:00;;;;;;;9.58;6.55;;;;;;;15.33;60.74;99893.42;1689881;83;21252;-83
2023/12/20 11:39:08;;;;;;;10.13;6.72;;;;;;;15.56;59.80;99880.50;1729056;82;21339;-83
2023/12/20 11:42:16;;;;;;;13.53;6.70;;;;;;;15.39;60.11;99876.58;1772889;79;21221;-84
2023/12/20 11:45:23;;;;;;;11.48;6.20;;;;;;;15.33;60.27;99876.89;1774596;79;22269;-84
2023/12/20 11:48:28;;;;;;;7.85;6.12;;;;;;;15.51;59.32;99874.80;1772222;79;21249;-83
2023/12/20 11:51:33;;;;;;;7.70;5.50;;;;;;;15.48;58.99;99871.63;1779559;79;21283;-83
2023/12/20 11:54:39;;;;;;;8.40;5.87;;;;;;;15.57;58.77;99867.56;1775408;79;21268;-83
2023/12/20 11:57:48;;;;;;;16.07;5.97;;;;;;;15.76;58.47;99863.04;1782611;79;21307;-84
2023/12/20 12:00:57;;;;;;;22.75;13.22;;;;;;;15.82;57.88;99862.18;1782758;79;21233;-83
2023/12/20 12:04:13;;;;;;;12.47;7.67;;;;;;;15.90;57.66;99850.86;1774939;79;22141;-83
2023/12/20 12:07:20;;;;;;;10.75;6.78;;;;;;;15.17;59.80;99843.48;1771683;79;21252;-83
2023/12/20 12:10:26;;;;;;;24.37;7.75;;;;;;;15.42;59.24;99835.31;1787447;79;21271;-83
2023/12/20 12:13:31;;;;;;;19.12;7.50;;;;;;;15.37;58.92;99840.11;1778657;79;21301;-83
2023/12/20 12:16:39;;;;;;;11.00;6.28;;;;;;;15.22;59.35;99834.88;1785514;79;21224;-83
2023/12/20 12:19:45;;;;;;;17.45;10.38;;;;;;;15.08;59.84;99837.36;1775084;79;21265;-84
2023/12/20 12:23:08;;;;;;;12.15;6.83;;;;;;;15.19;59.47;99839.97;1783295;79;22225;-83
2023/12/20 12:26:14;;;;;;;12.35;6.30;;;;;;;15.01;60.21;99838.78;1716241;81;21359;-84
2023/12/20 12:29:20;;;;;;;9.78;6.40;;;;;;;15.07;60.35;99837.90;1783249;79;21282;-83
2023/12/20 12:32:26;;;;;;;11.12;7.15;;;;;;;14.83;60.71;99833.95;1780580;79;21274;-83
2023/12/20 12:35:44;;;;;;;14.05;8.43;;;;;;;14.73;61.52;99829.42;1707694;81;21260;-84
2023/12/20 12:38:53;;;;;;;13.65;8.58;;;;;;;15.02;60.88;99822.56;1729167;81;21272;-83
2023/12/20 12:41:58;;;;;;;11.83;6.53;;;;;;;15.00;60.91;99821.91;1729788;82;22285;-83
2023/12/20 12:45:04;;;;;;;12.28;8.13;;;;;;;15.12;60.64;99814.38;1743443;80;21820;-83
2023/12/20 12:48:12;;;;;;;12.10;7.87;;;;;;;14.85;61.26;99822.70;1738363;82;21279;-83
2023/12/20 12:51:18;;;;;;;8.75;6.12;;;;;;;14.95;61.06;99816.21;1751868;81;21279;-83
2023/12/20 12:54:24;;;;;;;9.93;6.35;;;;;;;15.00;60.66;99826.05;1743443;81;21825;-83
2023/12/20 12:57:30;;;;;;;8.40;5.92;;;;;;;15.33;59.67;99826.45;1744301;81;21294;-83
2023/12/20 13:00:35;;;;;;;14.35;7.33;;;;;;;15.37;59.72;99830.46;1751250;80;21303;-83
2023/12/20 13:03:40;;;;;;;13.18;9.00;;;;;;;15.12;60.01;99826.77;1732261;80;22292;-83
2023/12/20 13:06:46;;;;;;;11.80;6.92;;;;;;;15.42;59.36;99819.63;1741317;81;21294;-83
2023/12/20 13:09:53;;;;;;;10.60;7.53;;;;;;;15.48;59.27;99820.14;1743966;81;21200;-83
2023/12/20 13:12:58;;;;;;;9.98;6.28;;;;;;;14.88;60.75;99816.78;1740266;81;21801;-83
2023/12/20 13:16:04;;;;;;;9.95;6.20;;;;;;;14.75;61.44;99819.56;1736541;81;21285;-83
2023/12/20 13:19:10;;;;;;;13.95;7.15;;;;;;;14.80;61.90;99817.01;1741353;81;21306;-83
2023/12/20 13:22:16;;;;;;;20.82;10.85;;;;;;;15.39;60.12;99813.73;1742170;81;22210;-83
2023/12/20 13:25:23;;;;;;;13.25;7.80;;;;;;;15.22;60.32;99811.99;1743526;81;21818;-83
2023/12/20 13:28:29;;;;;;;13.03;7.53;;;;;;;15.07;60.67;99811.73;1738588;81;21305;-83
2023/12/20 13:31:39;;;;;;;12.37;7.65;;;;;;;15.07;60.52;99810.36;1739384;81;21322;-83
2023/12/20 13:34:46;;;;;;;13.22;7.35;;;;;;;14.59;62.43;99807.11;1760879;80;21323;-83
2023/12/20 13:37:56;;;;;;;10.82;7.62;;;;;;;14.95;61.23;99799.69;1774249;80;21266;-83
2023/12/20 13:41:02;;;;;;;11.15;7.22;;;;;;;15.01;61.02;99802.13;1754676;80;21308;-83
2023/12/20 13:44:08;;;;;;;12.03;7.00;;;;;;;14.86;61.38;99792.73;1717865;83;21280;-83
2023/12/20 13:47:14;;;;;;;12.03;7.12;;;;;;;14.67;61.83;99795.02;1714296;82;21279;-82
2023/12/20 13:50:22;;;;;;;8.95;6.50;;;;;;;14.45;62.52;99789.75;1694652;84;21283;-82
2023/12/20 13:53:28;;;;;;;13.00;7.25;;;;;;;14.47;62.49;99784.86;1708315;83;21303;-82
2023/12/20 13:56:34;;;;;;;11.33;6.15;;;;;;;14.46;62.34;99781.80;1708559;82;21902;-82
2023/12/20 13:59:41;;;;;;;11.22;7.12;;;;;;;14.51;61.93;99777.91;1715855;83;21970;-83
2023/12/20 14:02:49;;;;;;;9.75;6.47;;;;;;;14.28;62.90;99774.20;1698584;83;21896;-83
2023/12/20 14:05:55;;;;;;;12.30;7.30;;;;;;;14.15;63.11;99767.86;1698306;82;21300;-83
2023/12/20 14:09:02;;;;;;;10.40;6.92;;;;;;;14.09;63.70;99763.22;1713497;83;21902;-83
2023/12/20 14:12:08;;;;;;;10.65;6.53;;;;;;;14.37;62.81;99759.70;1715547;82;21326;-83
2023/12/20 14:15:15;;;;;;;13.62;7.28;;;;;;;14.36;62.60;99755.27;1697305;84;21301;-83
2023/12/20 14:18:20;;;;;;;11.00;7.28;;;;;;;14.33;62.76;99751.02;1730465;83;22228;-83